logo
Rechercher aéroport 
image banner adimage banner adimage banner ad
image banner ad

SIHX - Fazenda Pau Dalho

Situé à Nova Bandeirantes, Brazil

ICAO - SIHX, IATA -

Données fournies par Airmate  

Information générale

Coordonnées: S9°24'22" W58°11'28"
Élévation : 787 feet MSL.
Variation magnétique : -17.281511027° East
Voir autres Aéroports à Ceará

Données opérationnelles

Special qualification required
Heure actuelle UTC:
Heure actuelle locale:
Météo à : - ( 0 km )
METAR: CZSJ 240702Z AUTO 30003KT 8SM CLR M01/M01 A3004 RMK SLP193
Voir NOTAMs / SUP AIP / TFR affectant cet aéroport [VIEW]
Fréquences de communication: [VIEW]

Pistes:

Identifiant RWYQFULongueur (ft)Largeur (ft)SurfaceLDA (ft)
02328166GRAVEL
20328166GRAVEL

Coordonnées de l'aéroport

Adresse: Nova Bandeirantes Brazil

Vue satellite de SIHX